Time;durP1;ratioP1;P1;durP2;ratioP2;P2;SDS_P1;SDS_P2;PMS_P1;PMS_P2;Temp;Humidity;BMP_temperature;BMP_pressure;BME280_temperature;BME280_humidity;BME280_pressure;Samples;Min_cycle;Max_cycle;Signal;HPM_P1;HPM_P2
2022/12/18 00:00:57;;;;;;;76.28;34.30;;;-5.80;99.90;;;;;;5043764;28;20567;-41
2022/12/18 00:03:22;;;;;;;68.63;33.08;;;-5.80;99.90;;;;;;5039101;28;20163;-41
2022/12/18 00:05:52;;;;;;;76.68;33.97;;;-5.80;99.90;;;;;;5037512;28;20048;-41
2022/12/18 00:08:18;;;;;;;56.88;25.95;;;-5.90;99.90;;;;;;5039045;28;20096;-46
2022/12/18 00:10:44;;;;;;;65.95;32.35;;;-5.90;99.90;;;;;;5043494;28;20034;-42
2022/12/18 00:13:10;;;;;;;70.65;32.80;;;-5.80;99.90;;;;;;5041593;28;20253;-42
2022/12/18 00:15:37;;;;;;;69.22;33.03;;;-5.80;99.90;;;;;;5037950;28;20473;-42
2022/12/18 00:18:02;;;;;;;68.63;32.53;;;-5.80;99.90;;;;;;5037053;28;20028;-42
2022/12/18 00:20:28;;;;;;;69.85;33.20;;;-5.90;99.90;;;;;;5038676;28;20545;-43
2022/12/18 00:22:54;;;;;;;70.18;34.65;;;-5.90;99.90;;;;;;5037896;28;20101;-41
2022/12/18 00:25:20;;;;;;;78.07;35.97;;;-5.80;99.90;;;;;;5039709;28;20040;-41
2022/12/18 00:27:45;;;;;;;82.68;37.90;;;-5.90;99.90;;;;;;5041987;28;20017;-41
2022/12/18 00:30:12;;;;;;;75.55;36.10;;;-5.90;99.90;;;;;;5051271;28;20032;-42
2022/12/18 00:32:37;;;;;;;72.38;35.97;;;-6.00;99.90;;;;;;5042199;28;20067;-41
2022/12/18 00:35:04;;;;;;;71.80;33.17;;;-5.90;99.90;;;;;;5041184;28;20033;-42
2022/12/18 00:37:29;;;;;;;71.05;34.17;;;-6.00;99.90;;;;;;5042774;28;20017;-42
2022/12/18 00:39:55;;;;;;;70.32;35.17;;;-6.00;99.90;;;;;;5045539;28;20025;-42
2022/12/18 00:45:05;;;;;;;67.90;31.33;;;-6.10;99.90;;;;;;5042476;28;20067;-42
2022/12/18 00:47:31;;;;;;;72.38;32.83;;;-6.10;99.90;;;;;;5041111;28;20057;-41
2022/12/18 00:49:56;;;;;;;71.82;33.30;;;-6.10;99.90;;;;;;5040940;28;20029;-41
2022/12/18 00:52:22;;;;;;;68.30;32.80;;;-6.10;99.90;;;;;;5042545;28;20498;-42
2022/12/18 00:54:47;;;;;;;79.53;32.97;;;-6.20;99.90;;;;;;5042488;28;20025;-41
2022/12/18 00:57:13;;;;;;;70.43;33.38;;;-6.10;99.90;;;;;;5043122;28;20322;-42
2022/12/18 00:59:38;;;;;;;77.30;36.47;;;-6.20;99.90;;;;;;5040302;28;20020;-41
2022/12/18 01:02:04;;;;;;;70.53;32.72;;;-6.10;99.90;;;;;;5041985;28;20028;-41
2022/12/18 01:04:32;;;;;;;77.50;33.15;;;-6.20;99.90;;;;;;5040394;28;20089;-41
2022/12/18 01:06:57;;;;;;;68.43;34.20;;;-6.20;99.90;;;;;;5041379;28;20104;-42
2022/12/18 01:09:22;;;;;;;72.10;33.90;;;-6.20;99.90;;;;;;5044066;28;20105;-42
2022/12/18 01:11:48;;;;;;;66.55;33.65;;;-6.30;99.90;;;;;;5043150;28;20475;-41
2022/12/18 01:14:13;;;;;;;74.88;32.35;;;-6.30;99.90;;;;;;5042940;28;20033;-40
2022/12/18 01:16:39;;;;;;;72.18;36.15;;;-6.30;99.90;;;;;;5040717;28;20129;-41
2022/12/18 01:19:04;;;;;;;80.68;35.53;;;-6.30;99.90;;;;;;5041966;28;20025;-41
2022/12/18 01:21:30;;;;;;;75.07;35.35;;;-6.30;99.90;;;;;;5040138;28;20510;-41
2022/12/18 01:23:56;;;;;;;78.22;37.08;;;-6.40;99.90;;;;;;5045541;28;20487;-41
2022/12/18 01:26:23;;;;;;;77.28;33.72;;;-6.40;99.90;;;;;;5045883;28;20029;-41
2022/12/18 01:28:48;;;;;;;68.53;32.40;;;-6.30;99.90;;;;;;5040180;28;20022;-41
2022/12/18 01:31:20;;;;;;;67.18;34.67;;;-6.30;99.90;;;;;;5039321;28;20478;-41
2022/12/18 01:33:46;;;;;;;66.30;31.63;;;-6.30;99.90;;;;;;5039697;28;20021;-40
2022/12/18 01:36:15;;;;;;;74.70;34.28;;;-6.30;99.90;;;;;;5040788;28;20024;-41
2022/12/18 01:38:41;;;;;;;56.83;24.92;;;-6.40;99.90;;;;;;5041533;28;20364;-41
2022/12/18 01:41:08;;;;;;;77.15;34.58;;;-6.40;99.90;;;;;;5046034;28;20041;-40
2022/12/18 01:44:00;;;;;;;65.03;31.90;;;-6.50;99.90;;;;;;5041135;28;20486;-41
2022/12/18 01:46:27;;;;;;;76.65;33.53;;;-6.50;99.90;;;;;;5038250;28;20029;-41
2022/12/18 01:49:01;;;;;;;64.18;32.13;;;-6.50;99.90;;;;;;5041190;28;20094;-41
2022/12/18 01:51:29;;;;;;;56.90;29.73;;;-6.50;99.90;;;;;;5037966;28;20049;-41
2022/12/18 01:53:55;;;;;;;67.50;31.92;;;-6.50;99.90;;;;;;5045056;28;20025;-41
2022/12/18 01:56:21;;;;;;;69.47;31.45;;;-6.50;99.90;;;;;;5046011;28;20037;-41
2022/12/18 01:59:02;;;;;;;68.22;32.15;;;-6.60;99.90;;;;;;5040223;28;20378;-41
2022/12/18 02:01:30;;;;;;;63.88;30.52;;;-6.60;99.90;;;;;;5040915;28;20013;-41
2022/12/18 02:04:12;;;;;;;67.07;30.08;;;-6.60;99.90;;;;;;5040666;28;20026;-41
2022/12/18 02:06:42;;;;;;;60.88;29.40;;;-6.70;99.90;;;;;;5039863;28;20017;-41
2022/12/18 02:09:16;;;;;;;65.63;29.35;;;-6.70;99.90;;;;;;5042274;28;20032;-41
2022/12/18 02:12:20;;;;;;;65.13;30.25;;;-6.70;99.90;;;;;;5040813;28;20049;-41
2022/12/18 02:15:15;;;;;;;58.00;28.20;;;-6.70;99.90;;;;;;5031956;28;20047;-42
2022/12/18 02:17:54;;;;;;;66.75;31.90;;;-6.70;99.90;;;;;;5040622;28;20108;-48
2022/12/18 02:20:22;;;;;;;64.85;28.50;;;-6.80;99.90;;;;;;5040729;28;20068;-48
2022/12/18 02:23:09;;;;;;;59.10;27.13;;;-6.80;99.90;;;;;;5040078;28;20021;-48
2022/12/18 02:26:03;;;;;;;55.00;26.73;;;-6.80;99.90;;;;;;5047314;28;20059;-50
2022/12/18 02:28:34;;;;;;;62.28;28.38;;;-6.80;99.90;;;;;;5039045;28;20032;-48
2022/12/18 02:31:03;;;;;;;65.40;29.83;;;-6.90;99.90;;;;;;5036968;28;20047;-49
2022/12/18 02:33:30;;;;;;;66.07;28.40;;;-6.90;99.90;;;;;;5039070;28;20172;-49
2022/12/18 02:35:57;;;;;;;57.65;28.90;;;-6.90;99.90;;;;;;5040109;28;20025;-48
2022/12/18 02:38:24;;;;;;;59.40;28.00;;;-6.90;99.90;;;;;;5040821;28;20025;-49
2022/12/18 02:40:53;;;;;;;52.65;27.60;;;-6.90;99.90;;;;;;5044946;28;20021;-47
2022/12/18 02:43:18;;;;;;;55.97;26.45;;;-6.80;99.90;;;;;;5042107;28;20032;-49
2022/12/18 02:45:54;;;;;;;59.17;25.52;;;-6.80;99.90;;;;;;5039497;28;20026;-49
2022/12/18 02:48:24;;;;;;;52.85;25.15;;;-6.80;99.90;;;;;;5040444;28;20025;-50
2022/12/18 02:51:14;;;;;;;50.90;24.70;;;-6.80;99.90;;;;;;5038129;28;20032;-48
2022/12/18 02:53:50;;;;;;;52.55;25.40;;;-6.80;99.90;;;;;;5040609;28;20032;-48
2022/12/18 02:56:21;;;;;;;52.38;23.85;;;-6.80;99.90;;;;;;5041744;28;20036;-48
2022/12/18 02:59:06;;;;;;;52.92;25.27;;;-6.90;99.90;;;;;;5039065;28;20040;-48
2022/12/18 03:01:58;;;;;;;49.13;23.60;;;-6.90;99.90;;;;;;5034616;28;20482;-49
2022/12/18 03:05:00;;;;;;;42.45;22.52;;;-6.90;99.90;;;;;;5042069;28;20032;-48
2022/12/18 03:07:42;;;;;;;49.63;24.15;;;-6.90;99.90;;;;;;5034062;28;20034;-47
2022/12/18 03:10:11;;;;;;;48.90;23.05;;;-6.90;99.90;;;;;;5038385;28;20067;-48
2022/12/18 03:12:41;;;;;;;42.63;21.67;;;-6.90;99.90;;;;;;5041991;28;20044;-49
2022/12/18 03:15:13;;;;;;;47.28;22.15;;;-7.00;99.90;;;;;;5038240;28;20017;-49
2022/12/18 03:17:43;;;;;;;41.17;19.98;;;-6.90;99.90;;;;;;5039576;28;20513;-49
2022/12/18 03:20:14;;;;;;;53.05;22.95;;;-6.90;99.90;;;;;;5037061;28;20023;-50
2022/12/18 03:22:42;;;;;;;51.78;23.63;;;-6.90;99.90;;;;;;5037463;28;20095;-48
2022/12/18 03:25:12;;;;;;;52.72;22.38;;;-6.90;99.90;;;;;;5044066;28;20078;-47
2022/12/18 03:27:43;;;;;;;48.83;23.35;;;-6.90;99.90;;;;;;5045980;28;20035;-47
2022/12/18 03:30:12;;;;;;;50.78;23.63;;;-7.00;99.90;;;;;;5036369;28;20525;-47
2022/12/18 03:33:20;;;;;;;55.95;24.00;;;-6.90;99.90;;;;;;5037634;28;20021;-47
2022/12/18 03:35:46;;;;;;;50.58;23.77;;;-6.90;99.90;;;;;;5036450;28;20099;-47
2022/12/18 03:38:12;;;;;;;54.08;24.83;;;-7.00;99.90;;;;;;5039528;28;20033;-47
2022/12/18 03:40:47;;;;;;;47.92;23.67;;;-7.00;99.90;;;;;;5043694;28;20325;-48
2022/12/18 03:43:22;;;;;;;57.40;25.77;;;-7.00;99.90;;;;;;5041456;28;20093;-47
2022/12/18 03:45:55;;;;;;;54.30;24.27;;;-7.00;99.90;;;;;;5039116;28;20378;-47
2022/12/18 03:48:31;;;;;;;48.15;23.92;;;-7.00;99.90;;;;;;5038820;28;20021;-47
2022/12/18 03:51:01;;;;;;;51.75;23.30;;;-7.10;99.90;;;;;;5037989;28;20032;-46
2022/12/18 03:53:32;;;;;;;54.47;24.48;;;-7.10;99.90;;;;;;5042048;28;20105;-48
2022/12/18 03:56:00;;;;;;;53.80;24.80;;;-7.20;99.90;;;;;;5043691;28;20060;-50
2022/12/18 03:58:28;;;;;;;50.95;24.42;;;-7.10;99.90;;;;;;5039693;28;20027;-49
2022/12/18 04:00:59;;;;;;;46.17;23.30;;;-7.10;99.90;;;;;;5037591;28;20107;-47
2022/12/18 04:03:26;;;;;;;51.47;24.60;;;-7.10;99.90;;;;;;5035817;28;20198;-47
2022/12/18 04:05:53;;;;;;;55.35;25.25;;;-7.20;99.90;;;;;;5037784;28;20467;-48
2022/12/18 04:08:20;;;;;;;53.15;24.65;;;-7.10;99.90;;;;;;5037818;28;20078;-47
2022/12/18 04:10:46;;;;;;;52.08;24.02;;;-7.20;99.90;;;;;;5043379;28;20051;-48
2022/12/18 04:13:11;;;;;;;56.28;24.48;;;-7.30;99.90;;;;;;5043787;28;20056;-47
2022/12/18 04:15:38;;;;;;;55.78;25.52;;;-7.40;99.90;;;;;;5037779;28;20025;-47
2022/12/18 04:18:03;;;;;;;48.75;23.88;;;-7.40;99.90;;;;;;5037524;28;20067;-48
2022/12/18 04:20:29;;;;;;;54.92;25.38;;;-7.30;99.90;;;;;;5037379;28;20021;-47
2022/12/18 04:22:54;;;;;;;50.80;25.10;;;-7.40;99.90;;;;;;5038605;28;20029;-47
2022/12/18 04:25:19;;;;;;;47.30;23.45;;;-7.40;99.90;;;;;;5048430;28;20251;-47
2022/12/18 04:27:45;;;;;;;56.92;24.60;;;-7.40;99.90;;;;;;5035715;28;20502;-47
2022/12/18 04:30:11;;;;;;;54.75;23.17;;;-7.30;99.90;;;;;;5039314;28;20036;-48
2022/12/18 04:32:36;;;;;;;47.63;23.08;;;-7.30;99.90;;;;;;5038482;28;20045;-48
2022/12/18 04:35:04;;;;;;;45.90;22.77;;;-7.30;99.90;;;;;;5037695;28;20374;-48
2022/12/18 04:37:29;;;;;;;48.28;22.20;;;-7.30;99.90;;;;;;5038907;28;20024;-48
2022/12/18 04:39:55;;;;;;;45.90;23.80;;;-7.40;99.90;;;;;;5041556;28;20534;-48
2022/12/18 04:42:20;;;;;;;45.35;22.90;;;-7.40;99.90;;;;;;5042389;28;20051;-51
2022/12/18 04:44:46;;;;;;;50.35;23.98;;;-7.30;99.90;;;;;;5036842;28;20017;-47
2022/12/18 04:47:11;;;;;;;51.17;24.25;;;-7.30;99.90;;;;;;5036979;28;20521;-49
2022/12/18 04:49:36;;;;;;;58.63;26.67;;;-7.40;99.90;;;;;;5037100;28;20096;-48
2022/12/18 04:52:02;;;;;;;50.65;23.25;;;-7.30;99.90;;;;;;5037271;28;20478;-48
2022/12/18 04:54:27;;;;;;;45.28;22.58;;;-7.30;99.90;;;;;;5045474;28;20028;-47
2022/12/18 04:56:53;;;;;;;47.38;22.98;;;-7.30;99.90;;;;;;5040754;28;20047;-47
2022/12/18 04:59:18;;;;;;;46.92;23.23;;;-7.40;99.90;;;;;;5037085;28;20559;-48
2022/12/18 05:01:45;;;;;;;44.90;21.45;;;-7.30;99.90;;;;;;5034750;28;20029;-48
2022/12/18 05:04:11;;;;;;;44.75;22.95;;;-7.30;99.90;;;;;;5035925;28;20021;-47
2022/12/18 05:06:36;;;;;;;43.30;21.15;;;-7.40;99.90;;;;;;5037638;28;20413;-50
2022/12/18 05:09:02;;;;;;;49.10;22.23;;;-7.40;99.90;;;;;;5037309;28;20027;-47
2022/12/18 05:11:27;;;;;;;53.97;22.67;;;-7.40;99.90;;;;;;5046688;28;20020;-49
2022/12/18 05:13:53;;;;;;;49.50;23.58;;;-7.40;99.90;;;;;;5043526;28;20026;-50
2022/12/18 05:16:18;;;;;;;49.58;21.83;;;-7.40;99.90;;;;;;5041338;28;20060;-48
2022/12/18 05:18:44;;;;;;;44.30;23.17;;;-7.50;99.90;;;;;;5042466;28;20375;-49
2022/12/18 05:21:09;;;;;;;50.08;23.48;;;-7.50;99.90;;;;;;5042085;28;20028;-47
2022/12/18 05:23:35;;;;;;;44.78;22.73;;;-7.50;99.90;;;;;;5048420;28;20295;-48
2022/12/18 05:26:04;;;;;;;45.05;21.95;;;-7.50;99.90;;;;;;5049448;28;20024;-47
2022/12/18 05:28:32;;;;;;;45.10;21.92;;;-7.50;99.90;;;;;;5041963;28;20032;-48
2022/12/18 05:31:00;;;;;;;44.92;22.10;;;-7.50;99.90;;;;;;5040121;28;20463;-47
2022/12/18 05:33:28;;;;;;;46.80;21.20;;;-7.50;99.90;;;;;;5041280;28;20386;-48
2022/12/18 05:35:59;;;;;;;50.20;22.42;;;-7.50;99.90;;;;;;5041812;28;20060;-48
2022/12/18 05:38:26;;;;;;;46.28;20.52;;;-7.60;99.90;;;;;;5041780;28;20029;-49
2022/12/18 05:40:53;;;;;;;43.95;22.20;;;-7.60;99.90;;;;;;5046796;28;20439;-48
2022/12/18 05:43:21;;;;;;;43.13;20.77;;;-7.60;99.90;;;;;;5043143;28;20031;-47
2022/12/18 05:45:47;;;;;;;42.63;20.65;;;-7.50;99.90;;;;;;5041067;28;20097;-47
2022/12/18 05:48:13;;;;;;;42.35;20.27;;;-7.50;99.90;;;;;;5038653;28;20029;-48
2022/12/18 05:50:41;;;;;;;46.08;21.20;;;-7.60;99.90;;;;;;5038550;28;20090;-47
2022/12/18 05:53:07;;;;;;;47.33;21.75;;;-7.60;99.90;;;;;;5043703;28;20033;-47
2022/12/18 05:55:34;;;;;;;42.17;20.05;;;-7.60;99.90;;;;;;5046731;28;20102;-48
2022/12/18 05:58:00;;;;;;;43.83;21.92;;;-7.60;99.90;;;;;;5041224;28;20464;-49
2022/12/18 06:00:26;;;;;;;39.80;19.90;;;-7.60;99.90;;;;;;5040605;28;20091;-48
2022/12/18 06:02:51;;;;;;;44.10;19.63;;;-7.60;99.90;;;;;;5039026;28;20032;-49
2022/12/18 06:05:17;;;;;;;43.97;20.40;;;-7.60;99.90;;;;;;5040297;28;20032;-50
2022/12/18 06:07:42;;;;;;;43.97;20.15;;;-7.50;99.90;;;;;;5039591;28;20025;-49
2022/12/18 06:10:08;;;;;;;42.20;19.17;;;-7.50;99.90;;;;;;5045617;28;20089;-51
2022/12/18 06:12:34;;;;;;;38.20;18.25;;;-7.50;99.90;;;;;;5042834;28;20033;-47
2022/12/18 06:15:00;;;;;;;39.65;19.10;;;-7.50;99.90;;;;;;5040643;28;20450;-50
2022/12/18 06:17:30;;;;;;;43.75;20.38;;;-7.50;99.90;;;;;;5038519;28;20029;-49
2022/12/18 06:19:55;;;;;;;46.22;20.73;;;-7.50;99.90;;;;;;5038597;28;20040;-49
2022/12/18 06:22:21;;;;;;;47.05;21.05;;;-7.50;99.90;;;;;;5050392;28;20045;-50
2022/12/18 06:24:46;;;;;;;39.72;19.48;;;-7.50;99.90;;;;;;5055805;28;20367;-48
2022/12/18 06:27:12;;;;;;;48.42;22.40;;;-7.50;99.90;;;;;;5049534;28;20033;-51
2022/12/18 06:29:37;;;;;;;41.63;20.30;;;-7.60;99.90;;;;;;5046921;28;20439;-50
2022/12/18 06:32:03;;;;;;;46.28;20.20;;;-7.60;99.90;;;;;;5039847;28;20029;-48
2022/12/18 06:34:29;;;;;;;40.15;17.95;;;-7.60;99.90;;;;;;5040724;28;20033;-48
2022/12/18 06:36:54;;;;;;;46.53;22.00;;;-7.60;99.90;;;;;;5049629;28;20047;-48
2022/12/18 06:39:19;;;;;;;45.78;21.58;;;-7.60;99.90;;;;;;5047509;28;20099;-48
2022/12/18 06:41:45;;;;;;;41.65;20.15;;;-7.60;99.90;;;;;;5051672;28;20033;-48
2022/12/18 06:44:10;;;;;;;50.25;22.83;;;-7.60;99.90;;;;;;5049321;28;20115;-48
2022/12/18 06:46:37;;;;;;;45.35;21.88;;;-7.60;99.90;;;;;;5049676;28;20028;-51
2022/12/18 06:49:03;;;;;;;44.45;20.63;;;-7.70;99.90;;;;;;5050099;28;20490;-48
2022/12/18 06:51:29;;;;;;;45.08;21.27;;;-7.70;99.90;;;;;;5049158;28;20036;-48
2022/12/18 06:53:54;;;;;;;42.13;19.50;;;-7.60;99.90;;;;;;5046594;28;20564;-49
2022/12/18 06:56:20;;;;;;;46.60;21.17;;;-7.60;99.90;;;;;;5049304;28;20043;-48
2022/12/18 06:58:45;;;;;;;40.90;19.58;;;-7.60;99.90;;;;;;5049714;28;20099;-48
2022/12/18 07:01:12;;;;;;;44.08;19.90;;;-7.60;99.90;;;;;;5049095;28;20025;-49
2022/12/18 07:03:39;;;;;;;45.15;19.08;;;-7.60;99.90;;;;;;5049157;28;20039;-48
2022/12/18 07:06:05;;;;;;;48.47;21.13;;;-7.70;99.90;;;;;;5049388;28;20029;-50
2022/12/18 07:08:31;;;;;;;41.08;20.98;;;-7.70;99.90;;;;;;5048841;28;20027;-51
2022/12/18 07:10:57;;;;;;;43.25;18.88;;;-7.70;99.90;;;;;;5054281;28;20033;-49
2022/12/18 07:13:23;;;;;;;43.13;20.80;;;-7.70;99.90;;;;;;5049441;28;20091;-49
2022/12/18 07:15:49;;;;;;;47.97;23.85;;;-7.80;99.90;;;;;;5047585;28;20025;-52
2022/12/18 07:18:14;;;;;;;48.45;20.02;;;-7.80;99.90;;;;;;5049088;28;20025;-48
2022/12/18 07:20:39;;;;;;;44.25;21.10;;;-7.80;99.90;;;;;;5048457;28;20029;-52
2022/12/18 07:23:05;;;;;;;47.53;22.88;;;-7.80;99.90;;;;;;5050145;28;20025;-50
2022/12/18 07:25:37;;;;;;;49.33;21.85;;;-7.80;99.90;;;;;;5060152;28;20482;-51
2022/12/18 07:28:03;;;;;;;46.08;22.17;;;-7.80;99.90;;;;;;5068945;28;20020;-51
2022/12/18 07:30:29;;;;;;;52.80;23.25;;;-7.80;99.90;;;;;;5068348;28;20435;-51
2022/12/18 07:32:54;;;;;;;43.88;20.20;;;-7.80;99.90;;;;;;5052026;28;20086;-50
2022/12/18 07:35:20;;;;;;;52.05;23.05;;;-7.80;99.90;;;;;;5048224;28;20037;-53
2022/12/18 07:37:45;;;;;;;45.85;21.63;;;-7.80;99.90;;;;;;5048809;28;20033;-53
2022/12/18 07:40:11;;;;;;;53.75;20.98;;;-7.80;99.90;;;;;;5053990;28;20029;-52
2022/12/18 07:42:37;;;;;;;47.47;21.33;;;-7.70;99.90;;;;;;5048354;28;20025;-55
2022/12/18 07:45:03;;;;;;;50.95;22.83;;;-7.80;99.90;;;;;;5047172;28;20021;-49
2022/12/18 07:47:29;;;;;;;47.58;22.77;;;-7.80;99.90;;;;;;5048381;28;20024;-51
2022/12/18 07:49:55;;;;;;;44.22;21.95;;;-7.70;99.90;;;;;;5048487;28;20021;-54
2022/12/18 07:52:21;;;;;;;51.70;24.23;;;-7.80;99.90;;;;;;5048429;28;20529;-49
2022/12/18 07:54:49;;;;;;;53.05;22.85;;;-7.80;99.90;;;;;;5055304;28;20057;-54
2022/12/18 07:57:16;;;;;;;58.08;25.38;;;-7.70;99.90;;;;;;5028463;28;20033;-50
2022/12/18 07:59:41;;;;;;;55.85;23.65;;;-7.80;99.90;;;;;;5043190;28;20494;-53
2022/12/18 08:02:07;;;;;;;53.22;24.15;;;-7.80;99.90;;;;;;5046736;28;20039;-49
2022/12/18 08:04:32;;;;;;;51.25;22.17;;;-7.70;99.90;;;;;;5048495;28;20025;-50
2022/12/18 08:06:58;;;;;;;54.03;23.38;;;-7.70;99.90;;;;;;5048216;28;20079;-49
2022/12/18 08:09:23;;;;;;;48.10;22.15;;;-7.70;99.90;;;;;;5049652;28;20029;-49
2022/12/18 08:11:49;;;;;;;49.70;23.02;;;-7.70;99.90;;;;;;5051505;28;20402;-49
2022/12/18 08:14:14;;;;;;;52.70;22.92;;;-7.70;99.90;;;;;;5047811;28;20074;-50
2022/12/18 08:16:40;;;;;;;52.50;23.23;;;-7.70;99.90;;;;;;5046318;28;20032;-49
2022/12/18 08:19:05;;;;;;;54.97;24.50;;;-7.70;99.90;;;;;;5046777;28;20082;-49
2022/12/18 08:21:31;;;;;;;49.22;22.67;;;-7.70;99.90;;;;;;5046250;28;20543;-49
2022/12/18 08:23:59;;;;;;;45.83;21.25;;;-7.70;99.90;;;;;;5053566;28;20035;-50
2022/12/18 08:26:26;;;;;;;58.15;24.25;;;-7.60;99.90;;;;;;5046122;28;20035;-49
2022/12/18 08:28:54;;;;;;;46.53;21.85;;;-7.60;99.90;;;;;;5046451;28;20052;-48
2022/12/18 08:31:20;;;;;;;52.53;22.75;;;-7.60;99.90;;;;;;5047474;28;20039;-49
2022/12/18 08:33:49;;;;;;;52.67;23.70;;;-7.60;99.90;;;;;;5047548;28;20466;-49
2022/12/18 08:36:14;;;;;;;47.83;21.80;;;-7.50;99.90;;;;;;5047747;28;20112;-50
2022/12/18 08:38:40;;;;;;;50.53;22.88;;;-7.40;99.90;;;;;;5047348;28;20461;-49
2022/12/18 08:41:09;;;;;;;48.25;23.80;;;-7.40;99.90;;;;;;5052904;28;20021;-49
2022/12/18 08:46:20;;;;;;;51.33;22.50;;;-7.30;99.90;;;;;;5048396;28;20040;-49
2022/12/18 08:48:46;;;;;;;53.65;23.38;;;-7.30;99.90;;;;;;5052064;28;20021;-48
2022/12/18 08:51:12;;;;;;;49.20;23.20;;;-7.20;99.90;;;;;;5051302;28;20025;-49
2022/12/18 08:53:37;;;;;;;47.45;22.88;;;-7.20;99.90;;;;;;5056817;28;20032;-48
2022/12/18 08:56:03;;;;;;;62.47;23.85;;;-7.20;99.90;;;;;;5063167;28;20399;-49
2022/12/18 08:58:29;;;;;;;54.38;24.75;;;-7.10;99.90;;;;;;5071513;28;20047;-48
2022/12/18 09:01:00;;;;;;;53.15;22.52;;;-7.10;99.90;;;;;;5070576;28;20345;-49
2022/12/18 09:03:26;;;;;;;50.17;22.73;;;-7.10;99.90;;;;;;5050135;28;20025;-48
2022/12/18 09:05:51;;;;;;;53.50;24.13;;;-7.00;99.90;;;;;;5051421;28;20051;-49
2022/12/18 09:08:17;;;;;;;53.33;22.92;;;-6.90;99.90;;;;;;5051059;28;20129;-49
2022/12/18 09:10:44;;;;;;;53.92;22.48;;;-6.80;99.90;;;;;;5055987;28;20505;-49
2022/12/18 09:13:11;;;;;;;50.08;23.95;;;-6.70;99.90;;;;;;5050990;28;20040;-48
2022/12/18 09:15:41;;;;;;;48.90;22.98;;;-6.60;99.90;;;;;;5050866;28;20091;-49
2022/12/18 09:18:07;;;;;;;51.38;22.40;;;-6.60;99.90;;;;;;5051100;28;20021;-48
2022/12/18 09:20:32;;;;;;;45.15;22.15;;;-6.50;99.90;;;;;;5050805;28;20025;-49
2022/12/18 09:22:58;;;;;;;53.33;21.77;;;-6.40;99.90;;;;;;5049942;28;20025;-49
2022/12/18 09:25:23;;;;;;;56.33;23.88;;;-6.30;99.90;;;;;;5062480;28;20600;-49
2022/12/18 09:27:49;;;;;;;50.50;22.35;;;-6.20;99.90;;;;;;5070956;28;20035;-49
2022/12/18 09:30:14;;;;;;;44.30;21.60;;;-6.10;99.90;;;;;;5062832;28;20092;-49
2022/12/18 09:32:40;;;;;;;48.22;22.55;;;-6.00;99.90;;;;;;5046883;28;20028;-49
2022/12/18 09:35:05;;;;;;;44.47;18.80;;;-5.90;99.90;;;;;;5050677;28;20033;-49
2022/12/18 09:37:31;;;;;;;45.80;19.25;;;-5.80;99.90;;;;;;5050973;28;20036;-51
2022/12/18 09:39:56;;;;;;;50.63;21.40;;;-5.70;99.90;;;;;;5049948;28;20072;-51
2022/12/18 09:42:22;;;;;;;46.85;22.35;;;-5.60;99.90;;;;;;5050572;28;20588;-51
2022/12/18 09:44:51;;;;;;;45.25;21.08;;;-5.40;99.90;;;;;;5050443;28;20036;-50
2022/12/18 09:47:27;;;;;;;46.50;20.40;;;-5.40;99.90;;;;;;5049158;28;20039;-50
2022/12/18 09:49:56;;;;;;;40.75;19.98;;;-5.20;99.90;;;;;;5050344;28;20032;-51
2022/12/18 09:52:33;;;;;;;52.28;20.88;;;-5.10;99.90;;;;;;5050497;28;20035;-52
2022/12/18 09:55:03;;;;;;;45.50;21.77;;;-5.10;99.90;;;;;;5039335;28;20029;-51
2022/12/18 09:57:33;;;;;;;42.63;20.80;;;-5.00;99.90;;;;;;5063417;28;20062;-50
2022/12/18 10:00:04;;;;;;;47.22;21.60;;;-4.90;99.90;;;;;;5067934;28;20024;-49
2022/12/18 10:02:30;;;;;;;46.20;20.95;;;-4.80;99.90;;;;;;5047272;28;20556;-49
2022/12/18 10:05:07;;;;;;;49.95;23.30;;;-4.70;99.90;;;;;;5029409;28;20027;-50
2022/12/18 10:07:58;;;;;;;48.40;23.52;;;-4.70;99.90;;;;;;5030264;28;20036;-50
2022/12/18 10:10:36;;;;;;;46.13;22.08;;;-4.50;99.90;;;;;;5029418;28;20021;-49
2022/12/18 10:13:02;;;;;;;47.53;23.83;;;-4.40;99.90;;;;;;5030115;28;20022;-49
2022/12/18 10:15:40;;;;;;;48.92;22.52;;;-4.20;99.90;;;;;;5029948;28;20497;-53
2022/12/18 10:18:32;;;;;;;49.22;22.83;;;-4.10;99.90;;;;;;5032293;28;20033;-49
2022/12/18 10:21:10;;;;;;;49.33;22.77;;;-3.90;99.90;;;;;;5029992;28;20025;-49
2022/12/18 10:24:19;;;;;;;48.25;23.65;;;-3.70;99.90;;;;;;5030061;28;20033;-48
2022/12/18 10:26:45;;;;;;;45.55;22.55;;;-3.50;99.90;;;;;;5053797;28;20475;-51
2022/12/18 10:29:13;;;;;;;44.67;22.42;;;-3.40;99.90;;;;;;5049320;28;20494;-50
2022/12/18 10:31:39;;;;;;;47.67;23.23;;;-3.30;99.90;;;;;;5049177;28;20510;-52
2022/12/18 10:34:04;;;;;;;47.53;22.95;;;-3.10;99.90;;;;;;5049461;28;20033;-50
2022/12/18 10:36:30;;;;;;;43.25;22.88;;;-3.00;99.90;;;;;;5049534;28;20063;-51
2022/12/18 10:39:18;;;;;;;49.92;24.00;;;-2.90;99.90;;;;;;5047956;28;20057;-53
2022/12/18 10:41:44;;;;;;;46.33;23.73;;;-2.60;99.90;;;;;;5048376;28;20025;-49
2022/12/18 10:44:11;;;;;;;49.10;23.80;;;-2.40;99.90;;;;;;5049408;28;20391;-49
2022/12/18 10:46:37;;;;;;;42.92;22.58;;;-1.60;99.90;;;;;;5049191;28;20474;-49
2022/12/18 10:49:04;;;;;;;39.97;21.90;;;-0.60;99.90;;;;;;5049279;28;20025;-50
2022/12/18 10:51:35;;;;;;;41.22;21.02;;;0.60;99.90;;;;;;5049043;28;20028;-53
2022/12/18 10:54:04;;;;;;;42.40;22.50;;;1.80;99.90;;;;;;5042832;28;20967;-51
